Time;durP1;ratioP1;P1;durP2;ratioP2;P2;SDS_P1;SDS_P2;PMS_P1;PMS_P2;Temp;Humidity;BMP_temperature;BMP_pressure;BME280_temperature;BME280_humidity;BME280_pressure;Samples;Min_cycle;Max_cycle;Signal;HPM_P1;HPM_P2
2021/10/10 00:00:52;;;;;;;;;37.50;34.25;;;;;19.16;49.29;102325.41;5058209;28;45450;-50
2021/10/10 00:03:17;;;;;;;;;35.00;32.50;;;;;19.15;49.05;102328.94;5058152;28;45418;-62
2021/10/10 00:05:42;;;;;;;;;30.00;28.00;;;;;19.16;48.98;102322.75;5057922;28;46898;-49
2021/10/10 00:08:08;;;;;;;;;34.75;32.75;;;;;19.14;49.24;102330.66;5057908;28;45313;-62
2021/10/10 00:10:33;;;;;;;;;38.50;31.00;;;;;19.14;49.19;102325.34;5058138;28;45232;-53
2021/10/10 00:12:59;;;;;;;;;34.50;30.75;;;;;19.15;49.53;102326.28;5058004;28;45541;-48
2021/10/10 00:15:25;;;;;;;;;38.75;33.75;;;;;19.16;49.12;102325.41;5057796;28;46183;-49
2021/10/10 00:17:51;;;;;;;;;35.25;32.50;;;;;19.15;49.30;102321.84;5057782;28;45332;-45
2021/10/10 00:20:17;;;;;;;;;33.75;32.25;;;;;19.15;49.16;102323.59;5057886;28;45398;-59
2021/10/10 00:22:42;;;;;;;;;35.50;31.75;;;;;19.15;49.47;102318.28;5057928;28;45389;-48
2021/10/10 00:25:09;;;;;;;;;35.50;31.50;;;;;19.15;49.08;102319.16;5057441;28;45992;-51
2021/10/10 00:27:35;;;;;;;;;33.75;31.50;;;;;19.16;49.39;102320.06;5057746;28;45322;-56
2021/10/10 00:30:02;;;;;;;;;32.75;31.75;;;;;19.15;49.18;102315.59;5057631;28;45297;-52
2021/10/10 00:32:28;;;;;;;;;37.50;33.00;;;;;19.15;49.45;102320.94;5057655;28;45466;-46
2021/10/10 00:34:53;;;;;;;;;37.00;32.25;;;;;19.16;49.47;102320.06;5057345;28;46181;-61
2021/10/10 00:37:18;;;;;;;;;39.50;34.25;;;;;19.15;49.20;102320.94;5057567;28;45425;-58
2021/10/10 00:39:44;;;;;;;;;33.75;31.75;;;;;19.16;49.54;102325.41;5057795;28;45255;-46
2021/10/10 00:42:09;;;;;;;;;37.00;32.75;;;;;19.15;49.18;102326.28;5057787;28;45303;-48
2021/10/10 00:44:35;;;;;;;;;38.75;33.00;;;;;19.15;49.32;102328.94;5057334;28;46289;-47
2021/10/10 00:47:01;;;;;;;;;38.75;34.25;;;;;19.15;49.50;102326.28;5057438;28;45250;-58
2021/10/10 00:49:26;;;;;;;;;34.00;31.50;;;;;19.15;49.34;102324.50;5057063;28;45264;-46
2021/10/10 00:51:53;;;;;;;;;33.25;29.50;;;;;19.14;49.29;102320.00;5057722;28;45267;-49
2021/10/10 00:54:19;;;;;;;;;39.00;34.25;;;;;19.15;49.38;102315.59;5057392;28;47042;-48
2021/10/10 00:56:46;;;;;;;;;34.00;31.75;;;;;19.15;49.31;102329.84;5058440;28;45658;-47
2021/10/10 00:59:22;;;;;;;;;37.00;32.00;;;;;19.15;49.57;102320.94;5061117;28;45385;-45
2021/10/10 01:01:51;;;;;;;;;37.25;32.50;;;;;19.14;49.51;102314.66;5061126;28;45283;-48
2021/10/10 01:04:17;;;;;;;;;41.00;31.50;;;;;19.15;49.48;102316.50;5060579;28;46328;-46
2021/10/10 01:06:43;;;;;;;;;34.25;32.00;;;;;19.14;49.59;102317.34;5060672;28;45239;-47
2021/10/10 01:09:12;;;;;;;;;35.50;32.50;;;;;19.13;49.49;102315.56;5060715;28;45228;-47
2021/10/10 01:11:39;;;;;;;;;38.75;32.00;;;;;19.15;49.28;102327.16;5060882;28;45256;-56
2021/10/10 01:14:04;;;;;;;;;36.50;33.25;;;;;19.15;49.54;102326.28;5060599;28;47100;-58
2021/10/10 01:16:30;;;;;;;;;38.50;32.50;;;;;19.14;49.39;102317.34;5060809;28;45400;-58
2021/10/10 01:18:59;;;;;;;;;36.75;32.50;;;;;19.14;49.42;102324.47;5060662;28;45303;-51
2021/10/10 01:21:25;;;;;;;;;32.75;30.25;;;;;19.14;49.63;102321.81;5061009;28;45335;-57
2021/10/10 01:23:51;;;;;;;;;42.00;33.75;;;;;19.14;49.32;102324.47;5060240;28;46387;-61
2021/10/10 01:26:17;;;;;;;;;36.00;32.75;;;;;19.15;49.16;102315.59;5060384;28;45228;-48
2021/10/10 01:28:43;;;;;;;;;39.00;31.50;;;;;19.15;49.24;102313.84;5060543;28;45296;-47
2021/10/10 01:31:08;;;;;;;;;33.75;31.50;;;;;19.14;49.33;102313.81;5060700;28;45392;-50
2021/10/10 01:33:34;;;;;;;;;40.25;33.75;;;;;19.15;49.48;102308.50;5059855;28;46261;-52
2021/10/10 01:35:59;;;;;;;;;35.75;31.00;;;;;19.14;49.43;102308.47;5060102;28;45341;-56
2021/10/10 01:38:25;;;;;;;;;34.75;31.50;;;;;19.14;49.51;102311.13;5060535;28;45266;-56
2021/10/10 01:40:51;;;;;;;;;39.75;33.00;;;;;19.14;49.37;102305.81;5060447;28;45311;-53
2021/10/10 01:43:16;;;;;;;;;39.25;32.25;;;;;19.14;49.31;102305.81;5060317;28;47126;-61
2021/10/10 01:45:42;;;;;;;;;32.50;31.00;;;;;19.14;49.55;102303.16;5060282;28;45236;-58
2021/10/10 01:48:08;;;;;;;;;35.50;30.75;;;;;19.13;49.34;102299.56;5060027;28;45468;-61
2021/10/10 01:50:34;;;;;;;;;34.50;31.25;;;;;19.13;49.47;102301.34;5060347;28;45211;-47
2021/10/10 01:53:00;;;;;;;;;39.50;32.25;;;;;19.14;49.58;102298.69;5060095;28;47034;-56
2021/10/10 01:55:25;;;;;;;;;33.75;30.75;;;;;19.13;49.25;102296.91;5059980;28;45220;-46
2021/10/10 01:57:51;;;;;;;;;30.75;30.25;;;;;19.14;49.41;102298.69;5060126;28;45409;-50
2021/10/10 02:00:16;;;;;;;;;36.50;32.00;;;;;19.14;49.39;102300.47;5060153;28;45504;-52
2021/10/10 02:02:42;;;;;;;;;35.50;31.50;;;;;19.13;49.29;102294.25;5059945;28;46987;-47
2021/10/10 02:05:08;;;;;;;;;35.25;31.50;;;;;19.13;49.30;102286.25;5059813;28;45497;-50
2021/10/10 02:07:34;;;;;;;;;35.50;31.25;;;;;19.13;49.46;102286.25;5059471;28;45252;-52
2021/10/10 02:10:00;;;;;;;;;33.50;29.50;;;;;19.13;49.32;102290.69;5059906;28;45240;-62
2021/10/10 02:12:25;;;;;;;;;37.75;33.00;;;;;19.14;49.27;102289.81;5059599;28;46148;-55
2021/10/10 02:14:50;;;;;;;;;35.75;32.00;;;;;19.13;49.20;102285.34;5059823;28;45334;-46
2021/10/10 02:17:16;;;;;;;;;39.75;31.75;;;;;19.13;49.26;102286.25;5059924;28;45288;-60
2021/10/10 02:19:42;;;;;;;;;27.00;24.25;;;;;19.14;49.43;102293.34;5060054;28;45459;-46
2021/10/10 02:22:07;;;;;;;;;36.00;31.75;;;;;19.13;49.28;102290.69;5059390;28;46240;-50
2021/10/10 02:24:32;;;;;;;;;34.25;29.25;;;;;19.13;49.31;102286.25;5059363;28;45334;-48
2021/10/10 02:26:58;;;;;;;;;30.25;29.00;;;;;19.12;49.20;102289.78;5059669;28;45386;-46
2021/10/10 02:29:23;;;;;;;;;34.50;29.50;;;;;19.13;49.18;102288.00;5059896;28;45370;-57
2021/10/10 02:31:49;;;;;;;;;34.00;29.75;;;;;19.12;49.19;102289.78;5059158;28;46644;-49
2021/10/10 02:34:15;;;;;;;;;36.75;31.75;;;;;19.13;48.97;102293.34;5059545;28;45288;-46
2021/10/10 02:36:42;;;;;;;;;28.25;25.25;;;;;19.12;49.17;102294.25;5059232;28;45382;-49
2021/10/10 02:39:09;;;;;;;;;33.50;31.00;;;;;19.13;49.09;102304.00;5059625;28;45383;-50
2021/10/10 02:41:36;;;;;;;;;28.75;26.00;;;;;19.13;49.17;102298.69;5059205;28;46161;-56
2021/10/10 02:44:01;;;;;;;;;30.75;28.00;;;;;19.13;49.00;102301.34;5058839;28;45473;-48
2021/10/10 02:46:28;;;;;;;;;31.25;29.25;;;;;19.13;49.26;102296.00;5059296;28;45177;-46
2021/10/10 02:48:53;;;;;;;;;29.50;27.25;;;;;19.12;49.13;102296.91;5059271;28;45168;-59
2021/10/10 02:51:19;;;;;;;;;34.25;28.75;;;;;19.11;49.31;102293.34;5059025;28;45250;-58
2021/10/10 02:53:44;;;;;;;;;36.00;30.75;;;;;19.11;49.07;102293.34;5059216;28;45203;-48
2021/10/10 02:56:10;;;;;;;;;35.25;30.50;;;;;19.10;49.33;102291.53;5059216;28;45214;-49
2021/10/10 02:58:35;;;;;;;;;34.00;28.00;;;;;19.12;48.94;102296.91;5059412;28;45413;-55
2021/10/10 03:01:01;;;;;;;;;30.25;28.50;;;;;19.10;49.11;102289.78;5058702;28;46889;-46
2021/10/10 03:03:27;;;;;;;;;32.75;29.00;;;;;19.12;48.97;102288.91;5058908;28;45444;-47
2021/10/10 03:05:52;;;;;;;;;33.50;28.50;;;;;19.10;48.95;102295.09;5059211;28;45349;-60
2021/10/10 03:08:18;;;;;;;;;32.75;29.00;;;;;19.10;49.16;102297.78;5058931;28;45268;-60
2021/10/10 03:10:43;;;;;;;;;33.75;31.00;;;;;19.10;48.81;102292.44;5058561;28;46182;-50
2021/10/10 03:13:09;;;;;;;;;34.00;29.75;;;;;19.10;48.95;102295.09;5058630;28;45317;-55
2021/10/10 03:15:36;;;;;;;;;30.50;28.00;;;;;19.10;49.03;102297.78;5058929;28;45286;-47
2021/10/10 03:18:02;;;;;;;;;32.25;29.00;;;;;19.09;49.29;102288.00;5059120;28;45244;-50
2021/10/10 03:20:27;;;;;;;;;30.50;28.00;;;;;19.09;49.07;102301.34;5057575;28;45943;-54
2021/10/10 03:22:53;;;;;;;;;34.50;30.00;;;;;19.10;49.32;102292.44;5058600;28;45351;-55
2021/10/10 03:25:18;;;;;;;;;37.50;31.50;;;;;19.10;49.02;102291.53;5058837;28;45224;-48
2021/10/10 03:27:44;;;;;;;;;34.75;31.75;;;;;19.09;49.04;102296.00;5058887;28;45202;-46
2021/10/10 03:30:10;;;;;;;;;32.25;29.25;;;;;19.10;48.89;102299.53;5058547;28;47156;-53
2021/10/10 03:32:35;;;;;;;;;33.00;31.25;;;;;19.09;48.98;102301.34;5058236;28;45193;-50
2021/10/10 03:35:01;;;;;;;;;34.00;31.00;;;;;19.10;48.95;102297.78;5058640;28;45195;-56
2021/10/10 03:37:26;;;;;;;;;31.75;31.25;;;;;19.09;49.17;102290.69;5058724;28;45218;-48
2021/10/10 03:39:52;;;;;;;;;36.25;32.25;;;;;19.09;48.81;102298.66;5058354;28;46967;-49
2021/10/10 03:42:18;;;;;;;;;36.75;30.75;;;;;19.09;48.91;102296.00;5058270;28;45314;-55
2021/10/10 03:44:43;;;;;;;;;27.75;26.00;;;;;19.09;48.89;102298.66;5058523;28;45445;-48
2021/10/10 03:47:08;;;;;;;;;31.50;27.00;;;;;19.10;49.00;102284.44;5058583;28;45330;-48
2021/10/10 03:49:34;;;;;;;;;33.00;29.00;;;;;19.09;48.88;102287.13;5058031;28;45370;-47
2021/10/10 03:52:00;;;;;;;;;32.75;31.25;;;;;19.09;48.78;102285.34;5058334;28;45329;-47
2021/10/10 03:56:52;;;;;;;;;29.50;28.25;;;;;19.10;48.79;102296.88;5058425;28;45327;-56
2021/10/10 03:59:20;;;;;;;;;34.00;31.00;;;;;19.10;48.93;102294.22;5057946;28;46381;-46
2021/10/10 04:01:46;;;;;;;;;34.50;29.25;;;;;19.10;48.80;102294.22;5058006;28;45470;-48
2021/10/10 04:04:11;;;;;;;;;31.75;30.25;;;;;19.10;48.77;102291.53;5058207;28;45650;-58
2021/10/10 04:06:36;;;;;;;;;31.50;28.25;;;;;19.09;48.83;102290.69;5058325;28;45232;-53
2021/10/10 04:09:02;;;;;;;;;29.00;26.75;;;;;19.09;48.83;102292.44;5057669;28;45565;-47
2021/10/10 04:11:27;;;;;;;;;37.00;31.50;;;;;19.09;48.72;102304.00;5057903;28;45298;-59
2021/10/10 04:13:53;;;;;;;;;31.25;29.75;;;;;19.09;48.72;102293.34;5057918;28;45322;-58
2021/10/10 04:16:18;;;;;;;;;34.50;31.75;;;;;19.09;48.79;102289.78;5058271;28;45451;-50
2021/10/10 04:18:43;;;;;;;;;24.00;20.75;;;;;19.10;48.61;102296.88;5057719;28;46337;-62
2021/10/10 04:21:09;;;;;;;;;29.50;27.00;;;;;19.09;48.82;102295.09;5057910;28;45319;-48
2021/10/10 04:23:34;;;;;;;;;32.25;28.00;;;;;19.09;48.70;102295.09;5057938;28;45297;-50
2021/10/10 04:26:01;;;;;;;;;39.75;31.25;;;;;19.09;48.75;102301.34;5057836;28;45534;-50
2021/10/10 04:28:26;;;;;;;;;34.75;30.00;;;;;19.09;48.92;102297.78;5057637;28;46066;-50
2021/10/10 04:30:52;;;;;;;;;28.75;26.50;;;;;19.09;48.75;102301.34;5057360;28;45332;-53
2021/10/10 04:33:17;;;;;;;;;34.75;29.25;;;;;19.08;48.67;102303.97;5057747;28;45374;-58
2021/10/10 04:35:43;;;;;;;;;36.50;30.75;;;;;19.09;48.74;102303.09;5057853;28;45212;-53
2021/10/10 04:38:10;;;;;;;;;38.75;33.25;;;;;19.07;48.85;102304.88;5057560;28;47031;-56
2021/10/10 04:40:36;;;;;;;;;30.00;29.00;;;;;19.07;48.80;102308.44;5057611;28;45243;-47
2021/10/10 04:43:08;;;;;;;;;30.50;27.25;;;;;19.09;48.49;102311.09;5057958;28;45603;-60
2021/10/10 04:45:34;;;;;;;;;29.75;27.25;;;;;19.09;48.80;102308.44;5057541;28;45446;-47
2021/10/10 04:48:00;;;;;;;;;31.75;30.00;;;;;19.08;48.67;102301.31;5057053;28;46039;-48
2021/10/10 04:50:25;;;;;;;;;35.75;30.25;;;;;19.08;48.46;102315.53;5057474;28;45172;-48
2021/10/10 04:52:50;;;;;;;;;36.00;33.25;;;;;19.08;48.40;102310.19;5057644;28;45326;-46
2021/10/10 04:55:16;;;;;;;;;36.75;33.75;;;;;19.08;48.52;102315.53;5057659;28;45319;-48
2021/10/10 04:57:41;;;;;;;;;37.00;33.75;;;;;19.08;48.47;102312.88;5057350;28;45257;-59
2021/10/10 05:00:07;;;;;;;;;35.50;31.75;;;;;19.08;48.63;102310.19;5057125;28;45378;-48
2021/10/10 05:02:33;;;;;;;;;35.50;29.50;;;;;19.08;48.39;102310.19;5057590;28;45410;-48
2021/10/10 05:04:58;;;;;;;;;36.25;31.00;;;;;19.08;48.40;102315.53;5057673;28;45329;-47
2021/10/10 05:07:24;;;;;;;;;33.50;27.75;;;;;19.08;48.40;102309.31;5057280;28;45409;-50
2021/10/10 05:09:50;;;;;;;;;35.75;29.50;;;;;19.08;48.62;102315.53;5057205;28;45341;-46
2021/10/10 05:12:16;;;;;;;;;33.75;32.00;;;;;19.07;48.47;102313.75;5057070;28;45547;-47
2021/10/10 05:14:42;;;;;;;;;32.00;29.50;;;;;19.08;48.33;102309.31;5057422;28;45413;-51
2021/10/10 05:17:07;;;;;;;;;33.75;31.00;;;;;19.07;48.33;102307.53;5056938;28;46200;-49
2021/10/10 05:19:33;;;;;;;;;38.00;31.25;;;;;19.07;48.36;102303.09;5057043;28;45270;-49
2021/10/10 05:21:58;;;;;;;;;35.00;31.00;;;;;19.08;48.41;102303.97;5057232;28;45248;-48
2021/10/10 05:24:24;;;;;;;;;33.00;28.25;;;;;19.07;48.14;102302.19;5057335;28;45248;-47
2021/10/10 05:26:49;;;;;;;;;31.75;29.00;;;;;19.07;48.37;102302.19;5056831;28;47127;-60
2021/10/10 05:29:14;;;;;;;;;29.75;28.25;;;;;19.07;48.53;102308.44;5057027;28;45359;-46
2021/10/10 05:31:40;;;;;;;;;38.00;29.75;;;;;19.07;48.33;102308.44;5057048;28;45476;-57
2021/10/10 05:34:05;;;;;;;;;33.75;29.50;;;;;19.07;48.32;102307.53;5056923;28;45568;-49
2021/10/10 05:36:31;;;;;;;;;34.50;29.50;;;;;19.06;48.48;102316.41;5056580;28;45875;-57
2021/10/10 05:38:58;;;;;;;;;32.50;29.00;;;;;19.06;48.37;102314.63;5056798;28;45281;-55
2021/10/10 05:41:24;;;;;;;;;34.75;29.25;;;;;19.07;48.49;102323.53;5056837;28;45379;-46
2021/10/10 05:43:49;;;;;;;;;31.00;29.00;;;;;19.06;48.21;102319.97;5059836;28;45394;-59
2021/10/10 05:46:14;;;;;;;;;36.50;31.00;;;;;19.06;48.11;102313.72;5060008;28;46823;-47
2021/10/10 05:48:40;;;;;;;;;33.50;29.50;;;;;19.06;48.33;102321.72;5059951;28;45312;-63
2021/10/10 05:51:05;;;;;;;;;34.50;31.00;;;;;19.05;48.35;102318.19;5060350;28;45248;-58
2021/10/10 05:53:31;;;;;;;;;33.75;31.75;;;;;19.06;48.27;102321.72;5060438;28;45437;-46
2021/10/10 05:56:02;;;;;;;;;39.25;31.50;;;;;19.05;48.39;102323.53;5059978;28;46986;-50
2021/10/10 05:58:30;;;;;;;;;31.75;28.75;;;;;19.05;48.23;102326.19;5059880;28;45341;-51
2021/10/10 06:00:55;;;;;;;;;30.75;29.50;;;;;19.05;48.21;102325.28;5060043;28;45259;-51
2021/10/10 06:03:21;;;;;;;;;38.25;32.50;;;;;19.05;48.20;102333.28;5060112;28;45463;-60
2021/10/10 06:05:47;;;;;;;;;32.00;30.00;;;;;19.04;48.27;102334.16;5059917;28;46046;-47
2021/10/10 06:08:12;;;;;;;;;33.00;30.00;;;;;19.04;48.20;102332.38;5059924;28;45221;-48
2021/10/10 06:10:38;;;;;;;;;32.25;28.25;;;;;19.05;48.43;102342.19;5060019;28;45419;-52
2021/10/10 06:13:06;;;;;;;;;34.00;31.25;;;;;19.04;48.37;102335.03;5059751;28;45272;-62
2021/10/10 06:15:31;;;;;;;;;33.00;30.50;;;;;19.02;48.25;102334.13;5059362;28;45464;-60
2021/10/10 06:17:57;;;;;;;;;33.50;31.00;;;;;19.04;48.25;102336.81;5059752;28;45232;-60
2021/10/10 06:20:22;;;;;;;;;36.50;31.50;;;;;19.04;48.35;102339.47;5059669;28;45268;-56
2021/10/10 06:22:47;;;;;;;;;33.75;29.75;;;;;19.02;48.24;102336.81;5059997;28;45243;-56
2021/10/10 06:25:14;;;;;;;;;37.25;32.50;;;;;19.03;48.08;102338.59;5059784;28;45319;-49
2021/10/10 06:27:40;;;;;;;;;34.25;30.25;;;;;19.02;48.16;102331.47;5059444;28;45324;-49
2021/10/10 06:30:05;;;;;;;;;35.00;32.00;;;;;19.02;48.30;102331.47;5059369;28;45286;-47
2021/10/10 06:32:31;;;;;;;;;36.75;31.25;;;;;19.02;48.17;102341.25;5059500;28;45458;-49
2021/10/10 06:34:58;;;;;;;;;31.00;28.75;;;;;19.00;48.21;102335.91;5059186;28;46341;-48
2021/10/10 06:37:23;;;;;;;;;35.75;32.50;;;;;19.01;48.32;102344.81;5059278;28;45338;-50
2021/10/10 06:39:49;;;;;;;;;34.25;30.50;;;;;19.00;48.18;102349.22;5059538;28;45750;-47
2021/10/10 06:42:16;;;;;;;;;36.75;31.50;;;;;19.01;48.22;102360.78;5059645;28;45216;-48
2021/10/10 06:44:41;;;;;;;;;40.50;32.00;;;;;19.01;48.18;102360.78;5059007;28;46393;-48
2021/10/10 06:47:06;;;;;;;;;34.50;31.50;;;;;19.01;48.24;102360.78;5059213;28;45227;-47
2021/10/10 06:49:32;;;;;;;;;36.25;29.75;;;;;19.00;48.31;102357.22;5059153;28;45411;-51
2021/10/10 06:51:57;;;;;;;;;35.75;32.25;;;;;18.99;48.07;102358.13;5059620;28;45489;-47
2021/10/10 06:54:22;;;;;;;;;35.75;32.50;;;;;18.99;48.11;102363.44;5059146;28;45305;-52
2021/10/10 06:56:48;;;;;;;;;38.50;30.00;;;;;18.98;47.95;102365.22;5059050;28;45350;-47
2021/10/10 06:59:13;;;;;;;;;35.50;30.00;;;;;18.98;48.27;102364.31;5059133;28;45339;-46
2021/10/10 07:01:39;;;;;;;;;38.25;32.50;;;;;18.98;48.02;102370.53;5058945;28;45440;-49
2021/10/10 07:04:04;;;;;;;;;40.00;32.00;;;;;18.98;47.99;102367.88;5058724;28;46058;-49
2021/10/10 07:06:30;;;;;;;;;35.75;31.00;;;;;18.98;48.08;102366.97;5058890;28;45465;-50
2021/10/10 07:08:56;;;;;;;;;36.25;31.25;;;;;18.98;48.07;102366.97;5058979;28;45349;-47
2021/10/10 07:11:21;;;;;;;;;40.50;33.75;;;;;18.98;48.01;102366.97;5059050;28;45287;-49
2021/10/10 07:13:47;;;;;;;;;39.25;33.50;;;;;18.98;48.22;102365.22;5058737;28;46150;-49
2021/10/10 07:16:12;;;;;;;;;35.75;31.00;;;;;18.98;47.89;102367.88;5057362;28;45240;-48
2021/10/10 07:18:45;;;;;;;;;34.25;31.25;;;;;18.98;47.86;102366.97;5058948;28;45258;-46
2021/10/10 07:26:36;;;;;;;;;38.00;32.25;;;;;18.96;48.13;102369.63;5036080;28;45383;-49
2021/10/10 07:29:03;;;;;;;;;38.50;33.75;;;;;18.96;48.10;102377.63;5036564;28;45776;-47
2021/10/10 07:31:29;;;;;;;;;35.50;30.50;;;;;18.95;47.71;102373.16;5036264;28;45307;-50
2021/10/10 07:33:54;;;;;;;;;34.50;30.50;;;;;18.96;47.93;102379.41;5035816;28;46212;-51
2021/10/10 07:36:19;;;;;;;;;39.00;31.00;;;;;18.96;48.26;102376.72;5036136;28;45420;-57
2021/10/10 07:38:45;;;;;;;;;35.50;31.50;;;;;18.96;48.12;102379.41;5036311;28;45791;-47
2021/10/10 07:41:10;;;;;;;;;35.50;29.25;;;;;18.96;47.88;102382.97;5036264;28;45544;-46
2021/10/10 07:43:36;;;;;;;;;34.50;29.50;;;;;18.95;47.93;102375.84;5035824;28;46007;-46
2021/10/10 07:46:17;;;;;;;;;38.50;30.50;;;;;18.94;48.02;102374.06;5035798;28;45440;-63
2021/10/10 07:48:42;;;;;;;;;31.00;29.00;;;;;18.95;48.02;102372.31;5036049;28;45363;-46
2021/10/10 07:51:08;;;;;;;;;33.50;31.25;;;;;18.94;47.70;102371.41;5019430;28;45544;-46
2021/10/10 07:53:33;;;;;;;;;35.50;33.00;;;;;18.94;47.79;102374.06;5035856;28;47312;-62
2021/10/10 07:55:58;;;;;;;;;35.25;31.00;;;;;18.96;47.73;102384.72;5036118;28;45369;-50
2021/10/10 07:58:24;;;;;;;;;34.00;31.25;;;;;18.96;47.67;102387.41;5036132;28;45288;-46
2021/10/10 08:00:49;;;;;;;;;38.00;31.25;;;;;18.95;48.02;102394.47;5050167;28;45384;-50
2021/10/10 08:03:14;;;;;;;;;36.50;30.75;;;;;18.96;47.93;102390.06;5058053;28;46083;-47
2021/10/10 08:05:44;;;;;;;;;39.25;31.00;;;;;18.95;48.01;102388.28;5057566;28;45436;-47
2021/10/10 08:08:11;;;;;;;;;37.00;31.50;;;;;18.95;47.66;102388.28;5058143;28;45249;-50
2021/10/10 08:10:38;;;;;;;;;34.50;30.75;;;;;18.94;47.81;102390.06;5058091;28;45243;-47
2021/10/10 08:13:05;;;;;;;;;41.50;33.00;;;;;18.94;47.84;102391.81;5057549;28;47343;-54
2021/10/10 08:15:31;;;;;;;;;34.75;32.00;;;;;18.96;47.81;102390.06;5057887;28;45433;-47
2021/10/10 08:17:57;;;;;;;;;34.50;32.75;;;;;18.93;47.60;102396.25;5057960;28;45329;-47
2021/10/10 08:20:23;;;;;;;;;29.50;28.00;;;;;18.93;47.88;102392.72;5058210;28;45231;-56
2021/10/10 08:22:49;;;;;;;;;37.25;32.75;;;;;18.94;47.80;102397.16;5057735;28;46153;-50
2021/10/10 08:25:15;;;;;;;;;36.50;32.25;;;;;18.94;47.81;102410.47;5057445;28;45389;-57
2021/10/10 08:27:43;;;;;;;;;39.50;32.50;;;;;18.94;47.90;102407.81;5057802;28;45203;-46
2021/10/10 08:30:11;;;;;;;;;33.50;29.25;;;;;18.95;47.96;102412.28;5057828;28;45376;-56
2021/10/10 08:32:38;;;;;;;;;36.00;31.50;;;;;18.94;47.91;102413.13;5057068;28;46193;-62
2021/10/10 08:35:05;;;;;;;;;36.25;32.25;;;;;18.95;47.80;102414.94;5057498;28;45203;-50
2021/10/10 08:37:30;;;;;;;;;31.75;29.75;;;;;18.94;47.68;102419.38;5057503;28;45315;-60
2021/10/10 08:39:56;;;;;;;;;31.25;29.50;;;;;18.94;47.67;102406.03;5057423;28;45212;-49
2021/10/10 08:42:30;;;;;;;;;35.00;31.25;;;;;18.93;47.84;102400.72;5057312;28;45843;-59
2021/10/10 08:45:04;;;;;;;;;26.25;26.25;;;;;18.93;47.67;102390.91;5057566;28;45431;-50
2021/10/10 08:47:31;;;;;;;;;35.25;29.50;;;;;18.94;47.81;102384.72;5057586;28;45215;-53
2021/10/10 08:49:57;;;;;;;;;34.25;32.00;;;;;18.94;47.67;102381.16;5057568;28;45460;-49
2021/10/10 08:52:23;;;;;;;;;38.00;32.75;;;;;18.93;47.60;102380.25;5057439;28;46149;-52
2021/10/10 08:54:49;;;;;;;;;33.00;29.25;;;;;18.94;47.73;102375.81;5057229;28;45275;-60
2021/10/10 08:57:15;;;;;;;;;32.00;28.00;;;;;18.94;47.68;102381.16;5057528;28;45240;-46
2021/10/10 08:59:44;;;;;;;;;33.75;30.50;;;;;18.93;47.79;102390.03;5057555;28;45248;-56
2021/10/10 09:02:20;;;;;;;;;32.00;30.50;;;;;18.93;47.60;102414.03;5057158;28;46277;-48
2021/10/10 09:04:47;;;;;;;;;33.75;31.25;;;;;18.91;47.60;102419.31;5057100;28;45359;-58
2021/10/10 09:07:12;;;;;;;;;35.00;31.75;;;;;18.93;47.51;102416.69;5057161;28;45361;-62
2021/10/10 09:09:40;;;;;;;;;34.75;30.50;;;;;18.93;47.67;102416.69;5057317;28;45343;-49
2021/10/10 09:12:07;;;;;;;;;38.50;30.00;;;;;18.94;48.00;102421.13;5057093;28;46119;-52
2021/10/10 09:14:52;;;;;;;;;35.25;31.25;;;;;18.92;47.66;102414.91;5056920;28;45378;-48
2021/10/10 09:17:19;;;;;;;;;29.75;29.00;;;;;18.92;47.76;102414.91;5057993;28;45333;-63
2021/10/10 09:19:54;;;;;;;;;32.75;30.00;;;;;18.92;47.73;102414.91;5060930;28;45196;-49
2021/10/10 09:22:22;;;;;;;;;33.50;29.00;;;;;18.92;47.52;102415.78;5060455;28;47187;-47
2021/10/10 09:24:49;;;;;;;;;40.75;32.50;;;;;18.92;47.69;102415.78;5060177;28;45504;-52
2021/10/10 09:27:16;;;;;;;;;35.50;32.50;;;;;18.93;47.60;102416.69;5060702;28;45309;-52
2021/10/10 09:29:44;;;;;;;;;35.75;31.75;;;;;18.91;47.68;102435.31;5060594;28;45265;-48
2021/10/10 09:32:18;;;;;;;;;36.00;30.75;;;;;18.91;47.77;102424.66;5060072;28;46959;-53
2021/10/10 09:34:44;;;;;;;;;31.00;30.00;;;;;18.91;47.55;102418.44;5060216;28;45222;-51
2021/10/10 09:39:57;;;;;;;;;33.25;28.25;;;;;18.91;47.71;102429.13;5060628;28;45236;-46
2021/10/10 09:42:37;;;;;;;;;38.50;31.00;;;;;18.90;47.67;102417.56;5060193;28;47413;-47
2021/10/10 09:45:12;;;;;;;;;31.50;29.00;;;;;18.90;47.80;102427.31;5060060;28;45501;-48
2021/10/10 09:47:59;;;;;;;;;38.25;31.00;;;;;18.91;47.67;102426.44;5060511;28;45160;-52
2021/10/10 09:50:28;;;;;;;;;35.00;28.00;;;;;18.89;47.42;102426.41;5060245;28;45226;-49
2021/10/10 09:53:00;;;;;;;;;30.50;30.25;;;;;18.90;47.62;102427.31;5060017;28;46180;-50
2021/10/10 09:55:26;;;;;;;;;31.75;30.25;;;;;18.89;47.70;102430.88;5060071;28;45330;-52
2021/10/10 09:57:51;;;;;;;;;33.75;29.50;;;;;18.89;47.50;102425.53;5059963;28;45165;-53
2021/10/10 10:00:19;;;;;;;;;33.25;30.25;;;;;18.89;47.75;102423.75;5060044;28;45190;-51
2021/10/10 10:02:46;;;;;;;;;36.00;31.75;;;;;18.88;47.65;102418.41;5059926;28;46299;-53
2021/10/10 10:05:27;;;;;;;;;40.25;33.50;;;;;18.88;47.78;102429.97;5059703;28;45334;-50
2021/10/10 10:07:54;;;;;;;;;30.75;28.00;;;;;18.89;47.35;102425.53;5060102;28;46195;-60
2021/10/10 10:10:22;;;;;;;;;33.25;29.25;;;;;18.89;47.40;102425.53;5059794;28;45413;-63
2021/10/10 10:12:48;;;;;;;;;36.00;31.25;;;;;18.88;47.80;102427.31;5059385;28;46172;-61
2021/10/10 10:15:14;;;;;;;;;32.75;31.00;;;;;18.86;47.55;102421.97;5059555;28;45231;-48
2021/10/10 10:17:40;;;;;;;;;32.75;30.75;;;;;18.88;47.63;102418.41;5059610;28;45337;-46
2021/10/10 10:20:06;;;;;;;;;37.75;32.00;;;;;18.88;47.80;102415.75;5059709;28;45410;-49
2021/10/10 10:22:34;;;;;;;;;35.75;30.00;;;;;18.87;47.54;102422.84;5059514;28;46227;-53
2021/10/10 10:25:00;;;;;;;;;37.00;29.75;;;;;18.87;47.69;102422.84;5059063;28;45350;-46
2021/10/10 10:27:26;;;;;;;;;24.50;20.00;;;;;18.88;47.53;102423.72;5059533;28;45413;-55
2021/10/10 10:29:55;;;;;;;;;37.25;31.75;;;;;18.88;47.63;102431.72;5059091;28;45523;-54
2021/10/10 10:32:28;;;;;;;;;31.00;28.00;;;;;18.88;47.38;102423.72;5059059;28;46222;-53
2021/10/10 10:35:11;;;;;;;;;34.75;31.75;;;;;18.86;47.66;102432.63;5057981;28;45359;-54
2021/10/10 10:37:42;;;;;;;;;34.00;29.25;;;;;18.88;47.59;102431.72;5059017;28;45457;-52
2021/10/10 10:40:27;;;;;;;;;35.25;29.50;;;;;18.86;47.56;102427.28;5059316;28;45393;-56
2021/10/10 10:42:55;;;;;;;;;34.75;29.50;;;;;18.88;47.60;102434.41;5059158;28;47069;-49
2021/10/10 10:45:35;;;;;;;;;30.75;28.25;;;;;18.86;47.42;102437.94;5059176;28;45352;-50
2021/10/10 10:48:27;;;;;;;;;29.00;26.75;;;;;18.86;47.71;102434.38;5059041;28;45208;-59
2021/10/10 10:51:23;;;;;;;;;33.50;30.50;;;;;18.87;47.49;102441.47;5059296;28;45541;-55
2021/10/10 10:53:49;;;;;;;;;32.50;29.50;;;;;18.86;47.38;102435.28;5058936;28;47060;-58
2021/10/10 10:56:33;;;;;;;;;36.50;28.75;;;;;18.88;47.26;102434.41;5058917;28;45353;-51
2021/10/10 10:58:59;;;;;;;;;32.00;29.50;;;;;18.85;47.64;102430.81;5059065;28;45275;-53
2021/10/10 11:01:25;;;;;;;;;40.00;32.25;;;;;18.86;47.70;102435.28;5059039;28;45359;-57
2021/10/10 11:03:50;;;;;;;;;33.50;28.75;;;;;18.86;47.51;102431.72;5058507;28;47015;-62
2021/10/10 11:06:22;;;;;;;;;29.75;29.00;;;;;18.85;47.46;102428.16;5058813;28;45589;-48
2021/10/10 11:08:47;;;;;;;;;34.00;30.75;;;;;18.86;47.27;102429.97;5058991;28;45279;-53
2021/10/10 11:11:18;;;;;;;;;32.75;29.50;;;;;18.85;47.42;102420.16;5058793;28;45161;-49
2021/10/10 11:13:51;;;;;;;;;32.25;29.75;;;;;18.84;47.32;102418.41;5058484;28;47117;-50
2021/10/10 11:16:20;;;;;;;;;35.25;29.75;;;;;18.85;47.49;102421.94;5058720;28;45292;-60
2021/10/10 11:18:47;;;;;;;;;31.00;27.50;;;;;18.84;47.31;102423.72;5058621;28;45298;-54